Time;durP1;ratioP1;P1;durP2;ratioP2;P2;SDS_P1;SDS_P2;PMS_P1;PMS_P2;Temp;Humidity;BMP_temperature;BMP_pressure;BME280_temperature;BME280_humidity;BME280_pressure;Samples;Min_cycle;Max_cycle;Signal;HPM_P1;HPM_P2
2022/05/28 00:01:05;;;;;;;;;2.33;1.00;;;;;;;;5061423;28;45415;-76
2022/05/28 00:03:30;;;;;;;;;3.00;3.00;;;;;;;;5070962;27;45616;-75
2022/05/28 00:05:56;;;;;;;;;2.25;2.25;;;;;;;;5075765;27;45501;-75
2022/05/28 00:08:24;;;;;;;;;1.67;1.67;;;;;;;;5071582;27;45551;-74
2022/05/28 00:10:49;;;;;;;;;2.00;1.67;;;;;;;;5073515;28;45490;-75
2022/05/28 00:13:15;;;;;;;;;2.00;2.00;;;;;;;;5090084;27;45319;-75
2022/05/28 00:15:41;;;;;;;;;2.00;2.00;;;;;;;;5070848;28;45406;-75
2022/05/28 00:18:07;;;;;;;;;2.00;1.00;;;;;;;;5065703;27;46042;-75
2022/05/28 00:20:32;;;;;;;;;2.33;2.33;;;;;;;;5061290;27;45304;-75
2022/05/28 00:22:58;;;;;;;;;2.67;1.33;;;;;;;;5058748;28;45490;-75
2022/05/28 00:25:23;;;;;;;;;2.00;2.00;;;;;;;;5073315;28;45367;-75
2022/05/28 00:27:48;;;;;;;;;5.00;3.00;;;;;;;;5066583;27;45610;-75
2022/05/28 00:30:14;;;;;;;;;2.67;2.00;;;;;;;;5064987;28;45496;-75
2022/05/28 00:32:41;;;;;;;;;2.00;2.00;;;;;;;;5064947;28;45548;-74
2022/05/28 00:35:07;;;;;;;;;2.00;2.00;;;;;;;;5075278;27;45353;-74
2022/05/28 00:37:32;;;;;;;;;2.00;1.67;;;;;;;;5091129;27;45427;-76
2022/05/28 00:39:59;;;;;;;;;2.67;2.67;;;;;;;;5075314;28;45244;-76
2022/05/28 00:42:25;;;;;;;;;4.00;2.67;;;;;;;;5069731;28;45258;-75
2022/05/28 00:44:50;;;;;;;;;4.00;2.33;;;;;;;;5072412;27;45299;-74
2022/05/28 00:47:16;;;;;;;;;2.00;2.00;;;;;;;;5068871;28;45437;-75
2022/05/28 00:49:41;;;;;;;;;2.00;2.00;;;;;;;;5073889;28;45495;-75
2022/05/28 00:52:10;;;;;;;;;2.33;1.00;;;;;;;;5070810;27;45437;-75
2022/05/28 00:54:38;;;;;;;;;2.00;2.00;;;;;;;;5069425;27;45567;-74
2022/05/28 00:57:04;;;;;;;;;5.00;3.00;;;;;;;;5065261;27;47352;-75
2022/05/28 00:59:29;;;;;;;;;2.67;2.67;;;;;;;;5062536;27;45515;-74
2022/05/28 01:02:00;;;;;;;;;2.00;2.00;;;;;;;;5071801;28;45461;-76
2022/05/28 01:04:32;;;;;;;;;2.33;2.33;;;;;;;;5082723;27;45336;-75
2022/05/28 01:07:00;;;;;;;;;1.00;1.00;;;;;;;;5060151;28;47450;-74
2022/05/28 01:09:44;;;;;;;;;2.00;2.00;;;;;;;;5071687;27;45404;-75
2022/05/28 01:12:10;;;;;;;;;2.67;2.67;;;;;;;;5069343;27;45566;-75
2022/05/28 01:14:44;;;;;;;;;4.00;3.00;;;;;;;;5069166;28;45542;-75
2022/05/28 01:17:13;;;;;;;;;3.00;2.00;;;;;;;;5076154;27;47064;-74
2022/05/28 01:19:57;;;;;;;;;2.67;2.67;;;;;;;;5057233;28;45431;-75
2022/05/28 01:22:28;;;;;;;;;3.25;2.00;;;;;;;;5072070;28;45285;-74
2022/05/28 01:25:05;;;;;;;;;3.00;2.75;;;;;;;;5086280;27;45430;-75
2022/05/28 01:27:34;;;;;;;;;3.00;3.00;;;;;;;;5069662;27;45451;-75
2022/05/28 01:30:03;;;;;;;;;2.67;2.67;;;;;;;;5068715;28;45448;-74
2022/05/28 01:32:29;;;;;;;;;3.00;3.00;;;;;;;;5071330;27;45256;-74
2022/05/28 01:34:56;;;;;;;;;3.00;2.00;;;;;;;;5082025;27;45583;-74
2022/05/28 01:37:22;;;;;;;;;3.25;3.00;;;;;;;;5057561;28;46266;-74
2022/05/28 01:39:49;;;;;;;;;2.25;2.25;;;;;;;;5070682;27;45473;-75
2022/05/28 01:42:15;;;;;;;;;2.33;2.33;;;;;;;;5068943;28;45362;-75
2022/05/28 01:44:41;;;;;;;;;3.00;3.00;;;;;;;;5068494;28;45291;-74
2022/05/28 01:47:07;;;;;;;;;1.67;1.67;;;;;;;;5068696;28;47183;-76
2022/05/28 01:49:33;;;;;;;;;2.00;2.00;;;;;;;;5089182;27;45727;-75
2022/05/28 01:52:00;;;;;;;;;3.67;2.33;;;;;;;;5071253;28;45452;-75
2022/05/28 01:54:32;;;;;;;;;2.00;2.00;;;;;;;;5073351;28;45555;-75
2022/05/28 01:56:57;;;;;;;;;4.67;2.00;;;;;;;;5070923;27;46125;-75
2022/05/28 01:59:25;;;;;;;;;3.00;2.00;;;;;;;;5068081;28;45557;-74
2022/05/28 02:01:51;;;;;;;;;2.33;2.33;;;;;;;;5072391;27;45718;-74
2022/05/28 02:04:16;;;;;;;;;2.33;2.33;;;;;;;;5071635;27;45407;-75
2022/05/28 02:06:42;;;;;;;;;2.00;2.00;;;;;;;;5069231;28;46232;-76
2022/05/28 02:09:09;;;;;;;;;1.33;1.33;;;;;;;;5069549;27;45338;-75
2022/05/28 02:11:53;;;;;;;;;3.00;2.00;;;;;;;;5071626;27;45528;-75
2022/05/28 02:14:18;;;;;;;;;2.67;2.67;;;;;;;;5079412;27;45672;-75
2022/05/28 02:16:58;;;;;;;;;3.33;3.33;;;;;;;;5082428;27;45516;-75
2022/05/28 02:19:29;;;;;;;;;3.00;3.00;;;;;;;;5072899;27;46208;-75
2022/05/28 02:22:06;;;;;;;;;3.00;3.00;;;;;;;;5059740;28;45339;-75
2022/05/28 02:24:36;;;;;;;;;4.00;3.00;;;;;;;;5059945;28;45408;-74
2022/05/28 02:27:04;;;;;;;;;3.00;2.33;;;;;;;;5061968;28;45415;-75
2022/05/28 02:29:31;;;;;;;;;3.00;3.00;;;;;;;;5078960;27;45622;-74
2022/05/28 02:31:56;;;;;;;;;2.00;2.00;;;;;;;;5076460;28;45525;-75
2022/05/28 02:34:21;;;;;;;;;2.33;2.33;;;;;;;;5060869;28;45304;-74
2022/05/28 02:36:47;;;;;;;;;5.00;3.67;;;;;;;;5086386;27;46260;-75
2022/05/28 02:39:13;;;;;;;;;3.33;2.33;;;;;;;;5069992;27;45509;-74
2022/05/28 02:41:38;;;;;;;;;3.00;3.00;;;;;;;;5062876;28;45454;-76
2022/05/28 02:44:04;;;;;;;;;3.00;3.00;;;;;;;;5062319;27;45271;-75
2022/05/28 02:46:29;;;;;;;;;3.00;3.00;;;;;;;;5074583;28;46243;-75
2022/05/28 02:48:55;;;;;;;;;2.00;2.00;;;;;;;;5073644;28;45302;-75
2022/05/28 02:51:21;;;;;;;;;3.00;3.00;;;;;;;;5072543;27;45415;-75
2022/05/28 02:53:47;;;;;;;;;4.00;3.00;;;;;;;;5076460;27;45477;-75
2022/05/28 02:56:13;;;;;;;;;4.33;2.67;;;;;;;;5071640;28;45603;-76
2022/05/28 02:58:39;;;;;;;;;5.25;4.00;;;;;;;;5075237;28;45327;-76
2022/05/28 03:01:16;;;;;;;;;3.33;3.33;;;;;;;;5089750;27;45357;-76
2022/05/28 03:03:42;;;;;;;;;3.00;3.00;;;;;;;;5063265;28;45371;-75
2022/05/28 03:06:08;;;;;;;;;3.00;2.00;;;;;;;;5066974;28;46984;-75
2022/05/28 03:08:33;;;;;;;;;2.33;2.33;;;;;;;;5072447;27;45358;-73
2022/05/28 03:10:58;;;;;;;;;2.75;2.00;;;;;;;;5061555;28;45570;-76
2022/05/28 03:13:23;;;;;;;;;2.00;2.00;;;;;;;;5077675;27;45427;-75
2022/05/28 03:15:48;;;;;;;;;4.25;3.00;;;;;;;;5072755;27;45403;-75
2022/05/28 03:18:14;;;;;;;;;2.50;2.50;;;;;;;;5070803;28;45489;-75
2022/05/28 03:20:39;;;;;;;;;2.00;2.00;;;;;;;;5071689;27;45619;-75
2022/05/28 03:23:04;;;;;;;;;2.00;2.00;;;;;;;;5074076;28;45213;-75
2022/05/28 03:25:29;;;;;;;;;4.00;2.00;;;;;;;;5076587;27;47035;-76
2022/05/28 03:27:55;;;;;;;;;3.50;2.50;;;;;;;;5073131;28;45426;-75
2022/05/28 03:30:20;;;;;;;;;3.50;3.50;;;;;;;;5064450;27;45457;-75
2022/05/28 03:32:45;;;;;;;;;2.67;2.67;;;;;;;;5063682;27;45244;-75
2022/05/28 03:35:10;;;;;;;;;2.67;2.67;;;;;;;;5059167;28;45990;-75
2022/05/28 03:37:36;;;;;;;;;3.00;3.00;;;;;;;;5074731;28;45323;-77
2022/05/28 03:40:02;;;;;;;;;3.75;3.00;;;;;;;;5078943;27;45365;-76
2022/05/28 03:42:27;;;;;;;;;2.33;2.33;;;;;;;;5072096;27;45491;-75
2022/05/28 03:44:52;;;;;;;;;3.00;3.00;;;;;;;;5068235;28;46150;-75
2022/05/28 03:47:17;;;;;;;;;2.00;2.00;;;;;;;;5070751;27;45759;-75
2022/05/28 03:49:43;;;;;;;;;2.50;2.50;;;;;;;;5091419;27;45589;-75
2022/05/28 03:52:09;;;;;;;;;4.50;4.00;;;;;;;;5072999;28;45276;-75
2022/05/28 03:54:34;;;;;;;;;3.67;3.00;;;;;;;;5070044;27;45401;-75
2022/05/28 03:57:05;;;;;;;;;4.00;2.00;;;;;;;;5070782;27;45422;-75
2022/05/28 03:59:30;;;;;;;;;2.50;2.50;;;;;;;;5072851;27;45346;-74
2022/05/28 04:01:56;;;;;;;;;3.33;3.33;;;;;;;;5087861;27;45511;-74
2022/05/28 04:04:21;;;;;;;;;2.67;2.00;;;;;;;;5073026;28;46063;-75
2022/05/28 04:06:46;;;;;;;;;4.00;3.00;;;;;;;;5058898;28;45371;-75
2022/05/28 04:09:12;;;;;;;;;4.00;4.00;;;;;;;;5062322;27;45610;-75
2022/05/28 04:11:38;;;;;;;;;4.33;3.00;;;;;;;;5061978;27;45558;-75
2022/05/28 04:14:04;;;;;;;;;3.00;3.00;;;;;;;;5058649;28;45350;-75
2022/05/28 04:16:29;;;;;;;;;2.00;2.00;;;;;;;;5080976;27;45564;-74
2022/05/28 04:18:54;;;;;;;;;2.00;2.00;;;;;;;;5072485;28;45549;-75
2022/05/28 04:21:19;;;;;;;;;2.00;2.00;;;;;;;;5063915;28;45580;-74
2022/05/28 04:23:45;;;;;;;;;1.67;1.67;;;;;;;;5066935;27;45458;-76
2022/05/28 04:26:10;;;;;;;;;3.33;3.33;;;;;;;;5083347;27;45398;-75
2022/05/28 04:28:35;;;;;;;;;5.00;3.00;;;;;;;;5073926;28;45399;-75
2022/05/28 04:31:01;;;;;;;;;1.33;0.00;;;;;;;;5062019;27;45514;-75
2022/05/28 04:33:26;;;;;;;;;3.00;3.00;;;;;;;;5062240;27;45292;-75
2022/05/28 04:35:51;;;;;;;;;5.00;4.00;;;;;;;;5063337;28;45518;-75
2022/05/28 04:38:17;;;;;;;;;3.25;3.25;;;;;;;;5071750;28;45395;-74
2022/05/28 04:40:42;;;;;;;;;2.67;2.67;;;;;;;;5075506;27;45433;-75
2022/05/28 04:43:07;;;;;;;;;3.00;3.00;;;;;;;;5071899;28;46021;-75
2022/05/28 04:45:32;;;;;;;;;2.75;2.75;;;;;;;;5061640;28;45355;-75
2022/05/28 04:47:57;;;;;;;;;3.25;3.00;;;;;;;;5069942;27;45429;-74
2022/05/28 04:50:23;;;;;;;;;1.00;1.00;;;;;;;;5080886;27;45426;-75
2022/05/28 04:52:48;;;;;;;;;2.00;2.00;;;;;;;;5056825;28;46956;-75
2022/05/28 04:55:13;;;;;;;;;3.25;2.00;;;;;;;;5090135;27;45481;-75
2022/05/28 04:57:39;;;;;;;;;2.00;2.00;;;;;;;;5069956;28;45221;-74
2022/05/28 05:00:07;;;;;;;;;3.00;3.00;;;;;;;;5066009;28;45442;-75
2022/05/28 05:02:32;;;;;;;;;2.33;2.33;;;;;;;;5059647;28;46414;-74
2022/05/28 05:04:57;;;;;;;;;5.33;3.00;;;;;;;;5072459;27;45516;-74
2022/05/28 05:07:23;;;;;;;;;3.50;3.25;;;;;;;;5072054;28;45298;-75
2022/05/28 05:09:48;;;;;;;;;2.00;2.00;;;;;;;;5074464;27;45300;-74
2022/05/28 05:12:13;;;;;;;;;3.00;3.00;;;;;;;;5078059;27;46130;-74
2022/05/28 05:14:38;;;;;;;;;1.33;1.33;;;;;;;;5077751;27;45287;-75
2022/05/28 05:17:04;;;;;;;;;2.50;2.50;;;;;;;;5071782;28;45508;-75
2022/05/28 05:19:29;;;;;;;;;1.25;1.25;;;;;;;;5058764;27;45391;-75
2022/05/28 05:21:55;;;;;;;;;2.75;2.75;;;;;;;;5059835;28;46451;-75
2022/05/28 05:24:21;;;;;;;;;2.00;2.00;;;;;;;;5065717;27;45339;-75
2022/05/28 05:26:46;;;;;;;;;3.00;2.00;;;;;;;;5075476;27;45415;-75
2022/05/28 05:29:11;;;;;;;;;1.00;1.00;;;;;;;;5069194;27;45664;-74
2022/05/28 05:31:37;;;;;;;;;2.00;2.00;;;;;;;;5057175;28;47074;-75
2022/05/28 05:34:02;;;;;;;;;2.25;2.25;;;;;;;;5071185;28;45290;-75
2022/05/28 05:36:27;;;;;;;;;2.00;2.00;;;;;;;;5079848;27;45366;-74
2022/05/28 05:38:52;;;;;;;;;2.50;2.50;;;;;;;;5074956;27;45327;-74
2022/05/28 05:41:17;;;;;;;;;2.00;2.00;;;;;;;;5060511;28;45969;-74
2022/05/28 05:43:43;;;;;;;;;3.00;2.33;;;;;;;;5057482;27;45546;-74
2022/05/28 05:46:08;;;;;;;;;3.67;2.33;;;;;;;;5060025;28;45256;-74
2022/05/28 05:48:34;;;;;;;;;2.50;2.50;;;;;;;;5060074;28;45371;-75
2022/05/28 05:51:10;;;;;;;;;1.00;1.00;;;;;;;;5055980;27;46032;-74
2022/05/28 05:53:35;;;;;;;;;1.00;1.00;;;;;;;;5076859;27;45362;-74
2022/05/28 05:56:01;;;;;;;;;2.00;2.00;;;;;;;;5070296;28;45368;-74
2022/05/28 05:58:26;;;;;;;;;2.67;2.00;;;;;;;;5072023;28;45327;-75
2022/05/28 06:00:51;;;;;;;;;5.67;2.00;;;;;;;;5086136;27;45460;-74
2022/05/28 06:03:17;;;;;;;;;4.00;2.33;;;;;;;;5075087;27;45529;-75
2022/05/28 06:05:43;;;;;;;;;2.00;1.00;;;;;;;;5072083;28;45398;-74
2022/05/28 06:08:09;;;;;;;;;2.50;2.50;;;;;;;;5076414;27;45477;-75
2022/05/28 06:10:34;;;;;;;;;2.25;1.50;;;;;;;;5059903;28;46147;-75
2022/05/28 06:12:59;;;;;;;;;1.67;1.67;;;;;;;;5074427;28;45546;-74
2022/05/28 06:15:24;;;;;;;;;3.33;3.33;;;;;;;;5072574;27;45308;-76
2022/05/28 06:17:49;;;;;;;;;3.00;2.00;;;;;;;;5077365;27;45502;-75
2022/05/28 06:20:15;;;;;;;;;2.00;2.00;;;;;;;;5060145;28;46929;-74
2022/05/28 06:22:40;;;;;;;;;2.00;2.00;;;;;;;;5085345;27;45491;-75
2022/05/28 06:25:05;;;;;;;;;2.00;2.00;;;;;;;;5094186;27;45383;-74
2022/05/28 06:27:34;;;;;;;;;1.50;1.00;;;;;;;;5081189;27;45323;-75
2022/05/28 06:29:59;;;;;;;;;4.33;2.00;;;;;;;;5078484;27;46210;-74
2022/05/28 06:32:24;;;;;;;;;2.00;2.00;;;;;;;;5074416;27;45266;-75
2022/05/28 06:34:49;;;;;;;;;2.00;1.67;;;;;;;;5059134;28;48613;-75
2022/05/28 06:37:15;;;;;;;;;1.00;1.00;;;;;;;;5074422;28;45276;-75
2022/05/28 06:39:40;;;;;;;;;2.00;2.00;;;;;;;;5072462;27;46285;-75
2022/05/28 06:42:06;;;;;;;;;2.00;2.00;;;;;;;;5071565;27;45536;-75
2022/05/28 06:44:31;;;;;;;;;1.00;1.00;;;;;;;;5072833;28;45622;-76
2022/05/28 06:46:57;;;;;;;;;3.00;3.00;;;;;;;;5060814;27;45498;-75
2022/05/28 06:49:22;;;;;;;;;2.00;1.33;;;;;;;;5092972;27;45841;-76
2022/05/28 06:51:48;;;;;;;;;2.25;2.25;;;;;;;;5072925;28;45415;-76
2022/05/28 06:54:13;;;;;;;;;3.00;2.00;;;;;;;;5073627;27;45340;-75
2022/05/28 06:56:39;;;;;;;;;2.33;2.00;;;;;;;;5072353;27;45555;-74
2022/05/28 06:59:04;;;;;;;;;2.00;2.00;;;;;;;;5086302;27;45405;-74
2022/05/28 07:01:29;;;;;;;;;1.00;1.00;;;;;;;;5073489;28;45495;-74
2022/05/28 07:03:54;;;;;;;;;1.00;1.00;;;;;;;;5068520;27;45368;-74
2022/05/28 07:06:19;;;;;;;;;2.50;2.50;;;;;;;;5065361;28;45400;-75
2022/05/28 07:08:45;;;;;;;;;2.33;2.00;;;;;;;;5062384;28;46201;-75
2022/05/28 07:11:11;;;;;;;;;2.67;1.00;;;;;;;;5059725;28;45398;-74
2022/05/28 07:13:36;;;;;;;;;5.00;1.67;;;;;;;;5091718;27;45322;-74
2022/05/28 07:16:05;;;;;;;;;2.00;2.00;;;;;;;;5073363;28;45483;-75
2022/05/28 07:18:30;;;;;;;;;0.33;0.33;;;;;;;;5069981;28;46116;-75
2022/05/28 07:20:55;;;;;;;;;2.00;2.00;;;;;;;;5069657;27;45438;-74
2022/05/28 07:23:22;;;;;;;;;2.00;2.00;;;;;;;;5059912;28;45371;-75
2022/05/28 07:25:47;;;;;;;;;2.00;2.00;;;;;;;;5073090;27;45327;-74
2022/05/28 07:28:25;;;;;;;;;2.00;2.00;;;;;;;;5069773;27;45973;-75
2022/05/28 07:31:03;;;;;;;;;2.67;2.00;;;;;;;;5072531;28;45571;-76
2022/05/28 07:33:30;;;;;;;;;2.00;1.33;;;;;;;;5063553;28;45333;-74
2022/05/28 07:35:56;;;;;;;;;2.00;1.33;;;;;;;;5070254;27;45599;-75
2022/05/28 07:38:22;;;;;;;;;1.00;1.00;;;;;;;;5080481;27;47053;-75
2022/05/28 07:40:48;;;;;;;;;1.33;1.33;;;;;;;;5073542;28;45366;-75
2022/05/28 07:43:13;;;;;;;;;1.00;1.00;;;;;;;;5061232;27;45358;-75
2022/05/28 07:45:41;;;;;;;;;4.00;2.00;;;;;;;;5063690;27;45684;-74
2022/05/28 07:48:07;;;;;;;;;2.67;1.00;;;;;;;;5061521;28;47140;-75
2022/05/28 07:50:32;;;;;;;;;1.00;1.00;;;;;;;;5061200;28;45321;-75
2022/05/28 07:52:58;;;;;;;;;1.00;1.00;;;;;;;;5067983;27;45287;-74
2022/05/28 07:55:23;;;;;;;;;2.00;2.00;;;;;;;;5072623;28;45379;-75
2022/05/28 07:57:48;;;;;;;;;1.00;1.00;;;;;;;;5071902;28;45294;-75
2022/05/28 08:00:14;;;;;;;;;1.00;1.00;;;;;;;;5078903;27;45311;-75
2022/05/28 08:02:39;;;;;;;;;1.00;1.00;;;;;;;;5078648;27;45300;-74
2022/05/28 08:05:04;;;;;;;;;1.33;1.33;;;;;;;;5082110;27;45379;-74
2022/05/28 08:07:30;;;;;;;;;2.00;2.00;;;;;;;;5060152;27;45957;-75
2022/05/28 08:09:55;;;;;;;;;1.33;1.33;;;;;;;;5074184;27;45537;-75
2022/05/28 08:12:21;;;;;;;;;1.00;1.00;;;;;;;;5072896;27;45370;-74
2022/05/28 08:14:46;;;;;;;;;2.00;2.00;;;;;;;;5069495;27;45315;-75
2022/05/28 08:17:11;;;;;;;;;1.00;1.00;;;;;;;;5068893;27;46042;-74
2022/05/28 08:19:36;;;;;;;;;3.00;1.00;;;;;;;;5058355;28;45301;-75
2022/05/28 08:24:45;;;;;;;;;2.00;2.00;;;;;;;;5086067;27;45308;-75
2022/05/28 08:27:11;;;;;;;;;2.00;2.00;;;;;;;;5069149;27;46209;-74
2022/05/28 08:29:36;;;;;;;;;1.00;1.00;;;;;;;;5061496;28;45405;-75
2022/05/28 08:32:01;;;;;;;;;2.00;1.00;;;;;;;;5060633;27;45381;-74
2022/05/28 08:34:26;;;;;;;;;2.00;1.00;;;;;;;;5059114;28;45288;-74
2022/05/28 08:36:51;;;;;;;;;2.00;2.00;;;;;;;;5060549;28;47155;-75
2022/05/28 08:39:17;;;;;;;;;2.00;1.67;;;;;;;;5067162;27;45300;-74
2022/05/28 08:41:44;;;;;;;;;2.00;2.00;;;;;;;;5078058;27;45477;-74
2022/05/28 08:44:09;;;;;;;;;1.67;1.00;;;;;;;;5073191;27;45497;-74
2022/05/28 08:46:35;;;;;;;;;2.00;1.00;;;;;;;;5075410;27;45595;-74
2022/05/28 08:49:01;;;;;;;;;1.00;1.00;;;;;;;;5087320;27;45230;-74
2022/05/28 08:51:26;;;;;;;;;2.67;2.67;;;;;;;;5071193;27;45501;-74
2022/05/28 08:53:56;;;;;;;;;2.00;2.00;;;;;;;;5067687;28;45199;-75
2022/05/28 08:56:24;;;;;;;;;1.00;1.00;;;;;;;;5061861;27;46162;-75
2022/05/28 08:58:57;;;;;;;;;1.00;1.00;;;;;;;;5058065;28;45483;-74
2022/05/28 09:01:22;;;;;;;;;1.00;1.00;;;;;;;;5072278;28;45305;-74
2022/05/28 09:03:57;;;;;;;;;2.00;1.00;;;;;;;;5075192;27;45384;-74
2022/05/28 09:06:23;;;;;;;;;4.33;2.67;;;;;;;;5063944;28;47175;-75
2022/05/28 09:08:52;;;;;;;;;2.33;1.00;;;;;;;;5062236;28;45510;-74
2022/05/28 09:11:37;;;;;;;;;1.00;1.00;;;;;;;;5072334;27;45523;-75
2022/05/28 09:14:08;;;;;;;;;1.67;1.67;;;;;;;;5057656;28;45386;-74
2022/05/28 09:16:35;;;;;;;;;1.00;1.00;;;;;;;;5057106;28;46170;-74
2022/05/28 09:19:05;;;;;;;;;2.00;2.00;;;;;;;;5060445;28;45272;-75
2022/05/28 09:21:30;;;;;;;;;4.00;1.00;;;;;;;;5061968;27;45448;-75
2022/05/28 09:24:02;;;;;;;;;2.67;2.00;;;;;;;;5061065;27;45566;-75
2022/05/28 09:26:30;;;;;;;;;0.33;0.33;;;;;;;;5059094;28;47133;-75
2022/05/28 09:28:58;;;;;;;;;1.33;1.33;;;;;;;;5072441;27;45468;-75
2022/05/28 09:31:26;;;;;;;;;5.00;1.00;;;;;;;;5072122;28;45376;-74
2022/05/28 09:33:58;;;;;;;;;2.00;2.00;;;;;;;;5060420;28;45434;-75
2022/05/28 09:36:29;;;;;;;;;1.33;1.00;;;;;;;;5058573;27;47286;-74
2022/05/28 09:39:01;;;;;;;;;1.00;1.00;;;;;;;;5064151;28;45454;-75
2022/05/28 09:41:29;;;;;;;;;3.00;1.00;;;;;;;;5063713;27;45441;-73
2022/05/28 09:43:57;;;;;;;;;1.00;1.00;;;;;;;;5076123;27;45308;-75
2022/05/28 09:46:25;;;;;;;;;1.00;1.00;;;;;;;;5074862;28;46232;-75
2022/05/28 09:49:01;;;;;;;;;1.00;1.00;;;;;;;;5063841;28;45305;-75
2022/05/28 09:51:28;;;;;;;;;1.00;1.00;;;;;;;;5072076;27;45451;-75
2022/05/28 09:56:41;;;;;;;;;3.00;1.00;;;;;;;;5071119;28;45508;-75
2022/05/28 09:59:25;;;;;;;;;1.00;1.00;;;;;;;;5078633;27;45584;-74
2022/05/28 10:02:07;;;;;;;;;1.00;1.00;;;;;;;;5060544;27;45556;-74
2022/05/28 10:04:41;;;;;;;;;1.00;1.00;;;;;;;;5060576;28;45355;-74
2022/05/28 10:07:06;;;;;;;;;2.00;2.00;;;;;;;;5062944;28;45312;-75
2022/05/28 10:09:33;;;;;;;;;3.33;1.00;;;;;;;;5071360;27;45464;-76
2022/05/28 10:11:59;;;;;;;;;1.33;1.33;;;;;;;;5072034;28;45438;-76
2022/05/28 10:14:28;;;;;;;;;1.00;1.00;;;;;;;;5071618;28;45505;-75
2022/05/28 10:16:54;;;;;;;;;2.00;1.00;;;;;;;;5083681;27;46368;-74
2022/05/28 10:19:25;;;;;;;;;2.00;2.00;;;;;;;;5074545;28;45509;-75
2022/05/28 10:21:52;;;;;;;;;2.00;2.00;;;;;;;;5073569;28;45541;-75
2022/05/28 10:24:19;;;;;;;;;2.00;0.67;;;;;;;;5075457;27;45711;-75
2022/05/28 10:26:46;;;;;;;;;1.00;1.00;;;;;;;;5070571;28;45423;-74
2022/05/28 10:29:17;;;;;;;;;1.00;1.00;;;;;;;;5078240;27;45888;-74
2022/05/28 10:31:44;;;;;;;;;1.67;1.00;;;;;;;;5076265;27;45398;-75
2022/05/28 10:34:21;;;;;;;;;1.00;1.00;;;;;;;;5074067;28;45467;-74
2022/05/28 10:36:46;;;;;;;;;1.00;1.00;;;;;;;;5078850;27;46433;-74
2022/05/28 10:39:13;;;;;;;;;2.00;1.00;;;;;;;;5068591;28;45314;-75
2022/05/28 10:41:38;;;;;;;;;3.00;1.00;;;;;;;;5079963;27;45282;-75
2022/05/28 10:44:05;;;;;;;;;1.00;1.00;;;;;;;;5063685;27;45484;-74
2022/05/28 10:46:56;;;;;;;;;1.00;1.00;;;;;;;;5059676;28;45475;-74
2022/05/28 10:49:21;;;;;;;;;1.00;1.00;;;;;;;;5073378;27;46474;-76
2022/05/28 10:52:04;;;;;;;;;2.33;1.00;;;;;;;;5072473;28;45208;-77
2022/05/28 10:54:29;;;;;;;;;1.00;1.00;;;;;;;;5073663;27;45461;-75
2022/05/28 10:56:55;;;;;;;;;1.00;1.00;;;;;;;;5071131;27;46108;-75
2022/05/28 10:59:33;;;;;;;;;1.00;1.00;;;;;;;;5071113;28;45295;-75
2022/05/28 11:02:04;;;;;;;;;2.67;2.00;;;;;;;;5074593;28;45449;-76
2022/05/28 11:04:48;;;;;;;;;2.00;1.33;;;;;;;;5068665;27;45477;-75
2022/05/28 11:07:22;;;;;;;;;1.33;0.00;;;;;;;;5073677;27;46368;-76
2022/05/28 11:10:22;;;;;;;;;1.67;1.67;;;;;;;;5061857;28;45426;-76
2022/05/28 11:12:51;;;;;;;;;1.00;1.00;;;;;;;;5029737;28;45568;-75
2022/05/28 11:15:20;;;;;;;;;0.00;0.00;;;;;;;;5028473;28;45607;-77
2022/05/28 11:18:03;;;;;;;;;2.67;1.00;;;;;;;;5027311;28;46536;-76
2022/05/28 11:20:37;;;;;;;;;1.00;1.00;;;;;;;;5019481;28;45914;-76
2022/05/28 11:23:32;;;;;;;;;1.00;1.00;;;;;;;;5030569;28;45468;-76
2022/05/28 11:26:00;;;;;;;;;1.00;1.00;;;;;;;;5018995;28;45491;-76
2022/05/28 11:28:44;;;;;;;;;2.67;1.00;;;;;;;;5017710;28;46793;-76
2022/05/28 11:31:13;;;;;;;;;0.00;0.00;;;;;;;;5034875;28;45397;-77
2022/05/28 11:33:41;;;;;;;;;1.00;1.00;;;;;;;;5033508;28;45590;-77
2022/05/28 11:36:12;;;;;;;;;1.00;1.00;;;;;;;;5027139;28;45482;-75
2022/05/28 11:38:37;;;;;;;;;0.00;0.00;;;;;;;;5004847;28;46977;-76
2022/05/28 11:41:21;;;;;;;;;1.33;1.00;;;;;;;;5020213;28;45503;-76
2022/05/28 11:43:50;;;;;;;;;0.00;0.00;;;;;;;;5034165;28;45415;-74
2022/05/28 11:46:31;;;;;;;;;1.00;1.00;;;;;;;;5036518;28;45357;-74
2022/05/28 11:51:53;;;;;;;;;0.00;0.00;;;;;;;;4991076;28;45442;-77
2022/05/28 11:54:22;;;;;;;;;1.00;1.00;;;;;;;;4983457;28;45587;-76
2022/05/28 11:56:52;;;;;;;;;1.67;0.67;;;;;;;;4992645;28;45466;-76
2022/05/28 11:59:20;;;;;;;;;1.00;1.00;;;;;;;;4989928;28;46160;-75
2022/05/28 12:01:50;;;;;;;;;2.00;0.67;;;;;;;;4977371;28;45477;-75
2022/05/28 12:04:15;;;;;;;;;0.00;0.00;;;;;;;;4995274;28;45471;-75
2022/05/28 12:06:56;;;;;;;;;0.33;0.33;;;;;;;;4987326;28;45644;-75
2022/05/28 12:09:25;;;;;;;;;1.00;1.00;;;;;;;;4991920;28;46978;-75
2022/05/28 12:12:08;;;;;;;;;0.67;0.67;;;;;;;;4992468;28;46134;-76
2022/05/28 12:14:37;;;;;;;;;1.00;1.00;;;;;;;;4986566;28;45322;-76
2022/05/28 12:17:02;;;;;;;;;1.00;1.00;;;;;;;;4988818;28;45536;-76
2022/05/28 12:19:28;;;;;;;;;0.67;0.67;;;;;;;;4976195;28;46052;-75
2022/05/28 12:22:04;;;;;;;;;0.00;0.00;;;;;;;;4991937;28;45445;-75
2022/05/28 12:24:30;;;;;;;;;1.00;1.00;;;;;;;;4994412;28;45502;-76
2022/05/28 12:29:33;;;;;;;;;0.67;0.67;;;;;;;;5052166;28;45454;-76
2022/05/28 12:32:17;;;;;;;;;1.00;0.00;;;;;;;;5056561;28;45311;-75
2022/05/28 12:34:53;;;;;;;;;0.33;0.00;;;;;;;;5074137;28;45468;-76
2022/05/28 12:37:20;;;;;;;;;1.00;1.00;;;;;;;;5073904;27;45464;-76
2022/05/28 12:39:57;;;;;;;;;1.00;1.00;;;;;;;;5061364;28;46376;-76
2022/05/28 12:42:27;;;;;;;;;0.67;0.00;;;;;;;;5068341;27;45557;-76
2022/05/28 12:44:52;;;;;;;;;1.00;1.00;;;;;;;;5069252;27;46019;-73
2022/05/28 12:47:25;;;;;;;;;1.00;1.00;;;;;;;;5060964;28;45338;-74
2022/05/28 12:50:04;;;;;;;;;1.00;0.00;;;;;;;;5058256;28;45468;-75
2022/05/28 12:52:32;;;;;;;;;1.00;1.00;;;;;;;;5079697;27;45604;-75
2022/05/28 12:55:16;;;;;;;;;1.00;1.00;;;;;;;;5060392;28;45382;-76
2022/05/28 12:57:41;;;;;;;;;1.00;1.00;;;;;;;;5068562;27;45529;-75
2022/05/28 13:00:09;;;;;;;;;0.00;0.00;;;;;;;;5075186;27;47226;-76
2022/05/28 13:02:37;;;;;;;;;0.67;0.67;;;;;;;;5069374;28;45299;-76
2022/05/28 13:05:08;;;;;;;;;2.00;0.33;;;;;;;;5072140;28;45506;-75
2022/05/28 13:07:36;;;;;;;;;1.00;1.00;;;;;;;;5072311;27;45589;-73
2022/05/28 13:10:22;;;;;;;;;0.00;0.00;;;;;;;;5071380;28;47181;-74
2022/05/28 13:12:54;;;;;;;;;1.00;1.00;;;;;;;;5070755;28;45450;-74
2022/05/28 13:15:28;;;;;;;;;0.33;0.00;;;;;;;;5069106;27;45338;-76
2022/05/28 13:18:03;;;;;;;;;1.00;0.33;;;;;;;;5061246;27;45332;-76
2022/05/28 13:20:38;;;;;;;;;2.33;1.00;;;;;;;;5061397;28;46390;-76
2022/05/28 13:23:10;;;;;;;;;0.00;0.00;;;;;;;;5075059;27;45468;-75
2022/05/28 13:25:35;;;;;;;;;2.00;0.33;;;;;;;;5090135;27;45510;-75
2022/05/28 13:28:06;;;;;;;;;0.00;0.00;;;;;;;;5071368;28;45390;-75
2022/05/28 13:30:35;;;;;;;;;1.00;1.00;;;;;;;;5069096;28;45413;-75
2022/05/28 13:33:03;;;;;;;;;0.67;0.67;;;;;;;;5069420;27;45417;-76
2022/05/28 13:35:38;;;;;;;;;1.00;1.00;;;;;;;;5068691;28;45395;-77
2022/05/28 13:38:03;;;;;;;;;1.00;1.00;;;;;;;;5071206;28;47783;-76
2022/05/28 13:40:30;;;;;;;;;1.00;0.00;;;;;;;;5072251;27;47231;-76
2022/05/28 13:42:58;;;;;;;;;0.00;0.00;;;;;;;;5071390;28;45431;-77
2022/05/28 13:45:26;;;;;;;;;1.00;1.00;;;;;;;;5068003;28;45474;-76
2022/05/28 13:47:53;;;;;;;;;0.00;0.00;;;;;;;;5074332;27;45267;-75
2022/05/28 13:50:22;;;;;;;;;1.00;1.00;;;;;;;;5085541;27;46390;-75
2022/05/28 13:52:50;;;;;;;;;1.00;1.00;;;;;;;;5057433;28;45517;-75
2022/05/28 13:55:20;;;;;;;;;2.00;0.67;;;;;;;;5071567;27;45315;-75
2022/05/28 13:57:46;;;;;;;;;1.00;1.00;;;;;;;;5061030;27;45374;-75
2022/05/28 14:00:17;;;;;;;;;0.00;0.00;;;;;;;;5064508;28;47523;-74
2022/05/28 14:02:55;;;;;;;;;1.00;1.00;;;;;;;;5067564;28;45416;-75
2022/05/28 14:05:27;;;;;;;;;0.67;0.00;;;;;;;;5068800;27;45384;-74
2022/05/28 14:07:52;;;;;;;;;0.00;0.00;;;;;;;;5057540;28;45228;-74
2022/05/28 14:10:19;;;;;;;;;1.00;1.00;;;;;;;;5071179;28;45396;-74
2022/05/28 14:12:45;;;;;;;;;1.00;0.00;;;;;;;;5083721;27;45532;-75
2022/05/28 14:15:16;;;;;;;;;1.33;1.00;;;;;;;;5068608;27;45488;-75
2022/05/28 14:17:41;;;;;;;;;1.00;0.00;;;;;;;;5059832;28;45414;-74
2022/05/28 14:20:13;;;;;;;;;1.00;1.00;;;;;;;;5072951;27;46163;-75
2022/05/28 14:22:44;;;;;;;;;0.33;0.33;;;;;;;;5057566;28;45316;-74
2022/05/28 14:25:12;;;;;;;;;0.00;0.00;;;;;;;;5079021;27;45246;-74
2022/05/28 14:27:38;;;;;;;;;1.00;1.00;;;;;;;;5071880;27;45358;-74
2022/05/28 14:30:04;;;;;;;;;2.00;0.00;;;;;;;;5070874;28;47229;-75
2022/05/28 14:32:32;;;;;;;;;0.00;0.00;;;;;;;;5073250;27;45657;-75
2022/05/28 14:34:57;;;;;;;;;0.67;0.67;;;;;;;;5060836;27;45355;-75
2022/05/28 14:37:25;;;;;;;;;0.33;0.33;;;;;;;;5061608;27;45504;-75
2022/05/28 14:39:51;;;;;;;;;0.00;0.00;;;;;;;;5072932;28;46439;-75
2022/05/28 14:42:25;;;;;;;;;0.00;0.00;;;;;;;;5071525;28;45410;-74
2022/05/28 14:44:50;;;;;;;;;0.33;0.33;;;;;;;;5072215;27;45532;-75
2022/05/28 14:47:22;;;;;;;;;0.33;0.33;;;;;;;;5071876;28;45579;-74
2022/05/28 14:49:50;;;;;;;;;0.00;0.00;;;;;;;;5073291;27;47136;-74
2022/05/28 14:52:17;;;;;;;;;1.00;1.00;;;;;;;;5074362;27;45296;-74
2022/05/28 14:54:48;;;;;;;;;0.00;0.00;;;;;;;;5063297;28;45462;-75
2022/05/28 14:57:21;;;;;;;;;2.00;0.00;;;;;;;;5063269;27;45414;-75
2022/05/28 14:59:46;;;;;;;;;1.00;1.00;;;;;;;;5060539;27;46120;-76